createdAt,value
2019-02-19T00:01:09.762Z,7.20
2019-02-19T00:03:40.668Z,6.75
2019-02-19T00:06:10.627Z,7.60
2019-02-19T00:08:39.641Z,7.80
2019-02-19T00:11:15.317Z,7.05
2019-02-19T00:13:44.344Z,7.80
2019-02-19T00:16:15.317Z,8.23
2019-02-19T00:18:50.193Z,8.30
2019-02-19T00:21:23.208Z,8.33
2019-02-19T00:23:52.134Z,8.35
2019-02-19T00:26:21.116Z,8.70
2019-02-19T00:28:55.059Z,9.05
2019-02-19T00:31:26.069Z,7.90
2019-02-19T00:34:01.522Z,8.65
2019-02-19T00:36:32.554Z,9.08
2019-02-19T00:39:07.750Z,8.58
2019-02-19T00:41:37.700Z,9.20
2019-02-19T00:44:06.686Z,8.30
2019-02-19T00:46:41.895Z,8.65
2019-02-19T00:49:10.925Z,8.83
2019-02-19T00:51:42.329Z,8.83
2019-02-19T00:54:22.290Z,8.08
2019-02-19T00:56:52.241Z,8.20
2019-02-19T00:59:21.093Z,7.45
2019-02-19T01:01:54.190Z,8.60
2019-02-19T01:04:25.086Z,8.00
2019-02-19T01:06:53.944Z,8.80
2019-02-19T01:09:23.101Z,8.43
2019-02-19T01:11:52.027Z,8.05
2019-02-19T01:14:21.087Z,7.50
2019-02-19T01:17:02.195Z,8.00
2019-02-19T01:19:31.281Z,8.70
2019-02-19T01:22:00.248Z,8.08
2019-02-19T01:24:36.035Z,8.08
2019-02-19T01:27:04.992Z,8.40
2019-02-19T01:29:50.380Z,7.97
2019-02-19T01:32:26.434Z,7.35
2019-02-19T01:34:55.284Z,7.67
2019-02-19T01:37:25.266Z,7.87
2019-02-19T01:39:54.256Z,7.92
2019-02-19T01:42:23.268Z,7.65
2019-02-19T01:44:53.352Z,8.35
2019-02-19T01:47:24.980Z,8.60
2019-02-19T01:50:00.307Z,7.12
2019-02-19T01:52:39.525Z,7.35
2019-02-19T01:55:08.725Z,7.20
2019-02-19T01:57:39.636Z,8.10
2019-02-19T02:00:11.455Z,7.03
2019-02-19T02:02:44.541Z,7.47
2019-02-19T02:05:14.716Z,6.33
2019-02-19T02:07:44.648Z,6.40
2019-02-19T02:10:15.523Z,7.08
2019-02-19T02:12:53.384Z,5.97
2019-02-19T02:15:23.455Z,6.62
2019-02-19T02:18:04.784Z,7.10
2019-02-19T02:20:42.851Z,6.28
2019-02-19T02:23:12.252Z,6.15
2019-02-19T02:25:42.105Z,6.08
2019-02-19T02:28:13.035Z,6.12
2019-02-19T02:30:42.936Z,5.55
2019-02-19T02:33:36.728Z,5.37
2019-02-19T02:36:11.459Z,5.17
2019-02-19T02:38:40.376Z,5.30
2019-02-19T02:41:09.276Z,5.60
2019-02-19T02:43:40.460Z,4.53
2019-02-19T02:46:09.384Z,4.80
2019-02-19T02:48:38.299Z,4.97
2019-02-19T02:51:07.146Z,5.10
2019-02-19T02:53:39.285Z,5.20
2019-02-19T02:56:11.256Z,5.20
2019-02-19T02:58:40.169Z,4.47
2019-02-19T03:01:11.032Z,4.30
2019-02-19T03:03:45.907Z,4.72
2019-02-19T03:06:29.197Z,5.40
2019-02-19T03:09:01.277Z,4.67
2019-02-19T03:11:30.141Z,4.50
2019-02-19T03:13:59.097Z,4.40
2019-02-19T03:16:29.019Z,6.00
2019-02-19T03:19:01.092Z,4.85
2019-02-19T03:21:30.061Z,4.30
2019-02-19T03:23:59.010Z,4.75
2019-02-19T03:26:27.873Z,5.10
2019-02-19T03:29:02.620Z,4.17
2019-02-19T03:31:32.538Z,4.53
2019-02-19T03:34:01.590Z,4.53
2019-02-19T03:36:30.484Z,4.20
2019-02-19T03:39:08.760Z,4.72
2019-02-19T03:41:49.806Z,4.12
2019-02-19T03:44:18.764Z,5.08
2019-02-19T03:46:48.696Z,4.53
2019-02-19T03:49:35.830Z,5.05
2019-02-19T03:52:11.040Z,5.25
2019-02-19T03:54:48.209Z,5.12
2019-02-19T03:57:18.229Z,4.25
2019-02-19T03:59:48.337Z,4.55
2019-02-19T04:02:17.490Z,4.85
2019-02-19T04:04:48.541Z,4.80
2019-02-19T04:07:20.565Z,4.40
2019-02-19T04:09:56.578Z,4.72
2019-02-19T04:12:31.558Z,5.10
2019-02-19T04:15:15.753Z,4.53
2019-02-19T04:17:52.618Z,4.40
2019-02-19T04:20:27.675Z,4.90
2019-02-19T04:22:56.617Z,4.45
2019-02-19T04:25:25.437Z,4.42
2019-02-19T04:27:54.246Z,4.47
2019-02-19T04:30:23.187Z,4.95
2019-02-19T04:32:51.988Z,4.97
2019-02-19T04:35:24.216Z,4.40
2019-02-19T04:37:53.130Z,4.80
2019-02-19T04:40:21.960Z,4.97
2019-02-19T04:42:50.756Z,4.85
2019-02-19T04:45:19.592Z,4.20
2019-02-19T04:47:48.488Z,5.00
2019-02-19T04:50:17.305Z,5.67
2019-02-19T04:52:46.127Z,4.80
2019-02-19T04:55:15.053Z,4.70
2019-02-19T04:57:43.858Z,5.37
2019-02-19T05:00:13.350Z,5.60
2019-02-19T05:02:42.240Z,4.78
2019-02-19T05:05:11.206Z,5.78
2019-02-19T05:07:42.920Z,5.75
2019-02-19T05:10:11.966Z,4.47
2019-02-19T05:12:40.783Z,4.67
2019-02-19T05:15:10.025Z,4.15
2019-02-19T05:17:38.851Z,6.72
2019-02-19T05:20:08.086Z,5.30
2019-02-19T05:22:37.006Z,5.33
2019-02-19T05:25:06.140Z,5.87
2019-02-19T05:27:38.143Z,5.17
2019-02-19T05:30:07.260Z,5.00
2019-02-19T05:32:36.218Z,5.62
2019-02-19T05:35:06.305Z,4.90
2019-02-19T05:37:36.337Z,5.87
2019-02-19T05:40:11.225Z,5.00
2019-02-19T05:42:41.167Z,5.40
2019-02-19T05:45:11.242Z,5.15
2019-02-19T05:47:41.197Z,5.58
2019-02-19T05:50:10.193Z,4.72
2019-02-19T05:52:39.117Z,5.72
2019-02-19T05:55:09.456Z,5.00
2019-02-19T05:57:38.387Z,4.42
2019-02-19T06:00:08.867Z,4.92
2019-02-19T06:02:43.983Z,4.97
2019-02-19T06:05:20.752Z,4.80
2019-02-19T06:07:49.748Z,5.30
2019-02-19T06:10:25.032Z,4.92
2019-02-19T06:12:54.115Z,4.85
2019-02-19T06:15:31.065Z,5.20
2019-02-19T06:18:01.465Z,5.40
2019-02-19T06:20:30.392Z,4.85
2019-02-19T06:22:59.260Z,5.35
2019-02-19T06:25:28.177Z,5.70
2019-02-19T06:27:57.127Z,4.50
2019-02-19T06:30:26.005Z,5.65
2019-02-19T06:32:58.009Z,5.37
2019-02-19T06:35:28.268Z,6.00
2019-02-19T06:37:57.267Z,5.22
2019-02-19T06:40:28.734Z,6.10
2019-02-19T06:42:58.717Z,5.30
2019-02-19T06:45:27.772Z,5.37
2019-02-19T06:47:57.996Z,4.92
2019-02-19T06:50:37.219Z,5.05
2019-02-19T06:53:21.189Z,6.05
2019-02-19T06:55:51.109Z,4.72
2019-02-19T06:58:23.052Z,4.85
2019-02-19T07:00:52.358Z,5.30
2019-02-19T07:03:37.389Z,4.83
2019-02-19T07:06:17.430Z,5.05
2019-02-19T07:08:47.883Z,4.80
2019-02-19T07:11:16.929Z,4.97
2019-02-19T07:13:45.895Z,4.78
2019-02-19T07:16:20.774Z,4.85
2019-02-19T07:18:49.993Z,5.45
2019-02-19T07:21:39.718Z,5.30
2019-02-19T07:24:14.550Z,4.95
2019-02-19T07:26:44.520Z,5.12
2019-02-19T07:29:15.073Z,5.37
2019-02-19T07:31:45.078Z,5.70
2019-02-19T07:34:21.775Z,6.00
2019-02-19T07:36:50.823Z,5.75
2019-02-19T07:39:19.957Z,5.40
2019-02-19T07:41:48.884Z,5.97
2019-02-19T07:44:40.918Z,5.78
2019-02-19T07:47:13.950Z,5.83
2019-02-19T07:49:56.124Z,5.03
2019-02-19T07:52:32.452Z,5.33
2019-02-19T07:55:02.387Z,4.92
2019-02-19T07:57:32.366Z,5.55
2019-02-19T08:00:04.693Z,5.45
2019-02-19T08:02:35.765Z,3.92
2019-02-19T08:05:05.217Z,5.00
2019-02-19T08:07:34.188Z,5.37
2019-02-19T08:10:10.356Z,4.53
2019-02-19T08:12:39.477Z,5.33
2019-02-19T08:15:09.254Z,5.22
2019-02-19T08:17:39.618Z,5.00
2019-02-19T08:20:15.312Z,5.85
2019-02-19T08:22:39.430Z,5.05
2019-02-19T08:25:09.674Z,5.42
2019-02-19T08:27:38.681Z,5.03
2019-02-19T08:30:10.996Z,4.83
2019-02-19T08:32:39.840Z,5.62
2019-02-19T08:35:08.938Z,5.25
2019-02-19T08:37:39.960Z,5.53
2019-02-19T08:40:09.110Z,5.97
2019-02-19T08:42:41.172Z,5.00
2019-02-19T08:45:10.355Z,7.10
2019-02-19T08:47:42.872Z,6.17
2019-02-19T08:50:12.170Z,5.30
2019-02-19T08:52:41.229Z,5.47
2019-02-19T08:55:12.221Z,5.45
2019-02-19T08:57:41.464Z,5.40
2019-02-19T09:00:18.874Z,6.00
2019-02-19T09:02:47.847Z,5.70
2019-02-19T09:05:22.885Z,5.08
2019-02-19T09:07:51.909Z,5.22
2019-02-19T09:10:22.938Z,5.30
2019-02-19T09:12:51.956Z,4.90
2019-02-19T09:15:22.005Z,4.62
2019-02-19T09:17:52.236Z,4.72
2019-02-19T09:20:27.354Z,5.80
2019-02-19T09:23:05.289Z,8.30
2019-02-19T09:25:34.290Z,5.35
2019-02-19T09:28:06.344Z,6.28
2019-02-19T09:30:38.457Z,4.60
2019-02-19T09:33:07.518Z,4.72
2019-02-19T09:35:38.502Z,5.03
2019-02-19T09:38:07.535Z,5.20
2019-02-19T09:40:36.521Z,5.03
2019-02-19T09:43:05.521Z,5.10
2019-02-19T09:45:42.544Z,6.80
2019-02-19T09:48:12.611Z,5.30
2019-02-19T09:50:46.738Z,4.92
2019-02-19T09:53:20.881Z,5.30
2019-02-19T09:55:50.839Z,5.10
2019-02-19T09:58:19.818Z,4.87
2019-02-19T10:00:54.627Z,4.80
2019-02-19T10:03:24.829Z,5.20
2019-02-19T10:06:00.661Z,5.30
2019-02-19T10:08:30.769Z,4.80
2019-02-19T10:10:59.861Z,5.40
2019-02-19T10:13:43.917Z,5.40
2019-02-19T10:16:24.931Z,5.58
2019-02-19T10:19:09.049Z,6.37
2019-02-19T10:21:39.065Z,5.50
2019-02-19T10:24:09.096Z,5.80
2019-02-19T10:26:41.162Z,6.57
2019-02-19T10:29:13.187Z,5.33
2019-02-19T10:31:42.106Z,5.87
2019-02-19T10:34:12.018Z,6.20
2019-02-19T10:36:42.021Z,5.60
2019-02-19T10:39:16.807Z,5.80
2019-02-19T10:41:45.907Z,5.80
2019-02-19T10:44:14.939Z,6.30
2019-02-19T10:46:43.864Z,6.23
2019-02-19T10:49:12.835Z,5.70
2019-02-19T10:51:41.854Z,6.30
2019-02-19T10:54:14.071Z,6.63
2019-02-19T10:56:46.133Z,5.78
2019-02-19T10:59:15.234Z,6.50
2019-02-19T11:01:44.251Z,5.90
2019-02-19T11:04:23.243Z,5.90
2019-02-19T11:06:53.238Z,5.43
2019-02-19T11:09:22.230Z,5.97
2019-02-19T11:11:53.149Z,6.37
2019-02-19T11:14:22.201Z,6.53
2019-02-19T11:16:51.284Z,6.20
2019-02-19T11:19:27.085Z,6.60
2019-02-19T11:21:56.121Z,5.70
2019-02-19T11:24:27.012Z,6.27
2019-02-19T11:27:04.525Z,5.50
2019-02-19T11:29:33.517Z,5.47
2019-02-19T11:32:02.553Z,6.30
2019-02-19T11:34:32.556Z,5.63
2019-02-19T11:37:01.615Z,5.23
2019-02-19T11:39:30.962Z,6.30
2019-02-19T11:42:04.800Z,7.90
2019-02-19T11:44:34.005Z,6.70
2019-02-19T11:47:03.026Z,5.70
2019-02-19T11:49:32.044Z,6.80
2019-02-19T11:52:10.020Z,5.83
2019-02-19T11:54:51.892Z,6.70
2019-02-19T11:57:24.105Z,6.70
2019-02-19T11:59:55.073Z,6.47
2019-02-19T12:02:32.566Z,7.37
2019-02-19T12:05:00.643Z,6.87
2019-02-19T12:07:29.521Z,6.47
2019-02-19T12:09:58.561Z,5.50
2019-02-19T12:12:28.433Z,6.23
2019-02-19T12:14:57.474Z,5.60
2019-02-19T12:17:28.519Z,7.47
2019-02-19T12:20:04.809Z,7.17
2019-02-19T12:22:33.845Z,6.27
2019-02-19T12:25:02.869Z,7.50
2019-02-19T12:27:31.998Z,6.80
2019-02-19T12:30:02.811Z,6.07
2019-02-19T12:32:31.886Z,6.10
2019-02-19T12:35:00.814Z,6.87
2019-02-19T12:37:29.805Z,7.10
2019-02-19T12:40:00.800Z,7.63
2019-02-19T12:42:29.757Z,7.40
2019-02-19T12:45:05.136Z,7.67
2019-02-19T12:47:35.064Z,6.37
2019-02-19T12:50:04.446Z,7.20
2019-02-19T12:52:33.400Z,7.53
2019-02-19T12:55:07.168Z,7.27
2019-02-19T12:57:36.878Z,6.97
2019-02-19T13:00:18.386Z,7.23
2019-02-19T13:02:49.364Z,7.53
2019-02-19T13:05:24.325Z,7.10
2019-02-19T13:07:59.485Z,7.53
2019-02-19T13:10:29.550Z,6.80
2019-02-19T13:13:03.689Z,6.97
2019-02-19T13:15:32.817Z,7.77
2019-02-19T13:18:01.961Z,7.90
2019-02-19T13:20:32.125Z,8.30
2019-02-19T13:23:03.113Z,9.10
2019-02-19T13:25:33.120Z,8.33
2019-02-19T13:28:02.094Z,8.07
2019-02-19T13:30:32.123Z,8.47
2019-02-19T13:33:03.344Z,8.20
2019-02-19T13:35:34.442Z,9.20
2019-02-19T13:38:09.869Z,8.50
2019-02-19T13:40:41.909Z,8.37
2019-02-19T13:43:15.173Z,8.30
2019-02-19T13:45:44.279Z,7.87
2019-02-19T13:48:25.806Z,7.97
2019-02-19T13:50:54.860Z,8.07
2019-02-19T13:53:45.856Z,8.63
2019-02-19T13:56:14.957Z,10.37
2019-02-19T13:58:43.943Z,9.50
2019-02-19T14:01:12.947Z,9.13
2019-02-19T14:03:42.048Z,8.83
2019-02-19T14:06:11.026Z,9.80
2019-02-19T14:08:40.963Z,10.03
2019-02-19T14:11:09.959Z,10.23
2019-02-19T14:13:52.438Z,9.90
2019-02-19T14:16:29.478Z,10.43
2019-02-19T14:19:06.718Z,10.83
2019-02-19T14:21:54.201Z,10.23
2019-02-19T14:24:48.477Z,11.03
2019-02-19T14:27:35.167Z,10.30
2019-02-19T14:30:20.040Z,11.20
2019-02-19T14:33:05.720Z,10.80
2019-02-19T14:35:47.170Z,10.80
2019-02-19T14:38:41.051Z,10.53
2019-02-19T14:41:41.211Z,10.40
2019-02-19T14:44:20.992Z,9.90
2019-02-19T14:47:21.125Z,10.90
2019-02-19T14:50:02.144Z,9.83
2019-02-19T14:52:56.028Z,10.50
2019-02-19T14:55:41.577Z,9.65
2019-02-19T14:58:15.858Z,9.75
2019-02-19T15:01:09.891Z,9.87
2019-02-19T15:03:56.756Z,10.23
2019-02-19T15:06:43.338Z,9.60
2019-02-19T15:09:40.561Z,9.60
2019-02-19T15:12:33.072Z,10.00
2019-02-19T15:15:20.985Z,10.27
2019-02-19T15:18:11.041Z,10.00
2019-02-19T15:21:15.542Z,8.77
2019-02-19T15:24:14.651Z,9.00
2019-02-19T15:27:01.332Z,8.80
2019-02-19T15:29:52.436Z,9.40
2019-02-19T15:32:39.482Z,9.50
2019-02-19T15:35:24.108Z,9.90
2019-02-19T15:38:25.277Z,8.50
2019-02-19T15:41:19.376Z,10.00
2019-02-19T15:43:58.768Z,8.80
2019-02-19T15:46:45.541Z,9.67
2019-02-19T15:49:32.432Z,9.65
2019-02-19T15:52:19.538Z,9.03
2019-02-19T15:55:07.546Z,9.37
2019-02-19T15:58:04.743Z,9.00
2019-02-19T16:00:46.985Z,9.47
2019-02-19T16:03:43.983Z,9.60
2019-02-19T16:06:37.888Z,9.93
2019-02-19T16:09:40.629Z,9.63
2019-02-19T16:12:44.801Z,9.28
2019-02-19T16:15:48.294Z,10.28
2019-02-19T16:18:36.350Z,8.90
2019-02-19T16:21:29.629Z,9.18
2019-02-19T16:24:16.437Z,9.70
2019-02-19T16:27:03.870Z,10.13
2019-02-19T16:29:54.757Z,8.78
2019-02-19T16:33:00.921Z,9.20
2019-02-19T16:35:38.681Z,9.15
2019-02-19T16:38:29.408Z,9.97
2019-02-19T16:41:20.784Z,9.25
2019-02-19T16:44:08.838Z,9.93
2019-02-19T16:46:52.620Z,10.53
2019-02-19T16:49:31.375Z,10.10
2019-02-19T16:52:06.505Z,11.48
2019-02-19T16:54:50.183Z,11.75
2019-02-19T16:57:26.478Z,10.25
2019-02-19T17:00:08.405Z,10.55
2019-02-19T17:02:51.704Z,12.03
2019-02-19T17:05:52.107Z,11.28
2019-02-19T17:08:46.290Z,10.05
2019-02-19T17:11:34.785Z,11.53
2019-02-19T17:14:16.780Z,11.43
2019-02-19T17:17:03.766Z,10.85
2019-02-19T17:19:51.873Z,11.18
2019-02-19T17:22:32.291Z,9.67
2019-02-19T17:25:20.569Z,11.28
2019-02-19T17:28:05.531Z,10.60
2019-02-19T17:30:58.287Z,10.95
2019-02-19T17:33:58.214Z,10.95
2019-02-19T17:36:53.832Z,11.93
2019-02-19T17:39:33.349Z,10.40
2019-02-19T17:42:09.597Z,11.08
2019-02-19T17:44:49.253Z,11.55
2019-02-19T17:47:48.721Z,11.08
2019-02-19T17:50:38.784Z,10.95
2019-02-19T17:53:16.489Z,10.43
2019-02-19T17:56:05.483Z,10.80
2019-02-19T17:58:54.314Z,10.25
2019-02-19T18:01:41.170Z,11.55
2019-02-19T18:04:18.450Z,9.98
2019-02-19T18:07:14.837Z,10.48
2019-02-19T18:09:57.823Z,10.68
2019-02-19T18:12:48.952Z,11.00
2019-02-19T18:15:39.173Z,10.50
2019-02-19T18:18:23.276Z,8.48
2019-02-19T18:20:55.613Z,12.20
2019-02-19T18:23:24.545Z,9.75
2019-02-19T18:25:53.421Z,10.40
2019-02-19T18:28:22.362Z,8.43
2019-02-19T18:30:51.238Z,7.92
2019-02-19T18:33:21.223Z,7.20
2019-02-19T18:35:50.161Z,7.70
2019-02-19T18:38:19.005Z,7.92
2019-02-19T18:40:47.847Z,6.90
2019-02-19T18:43:16.920Z,7.25
2019-02-19T18:45:45.774Z,6.92
2019-02-19T18:48:21.878Z,7.90
2019-02-19T18:50:58.107Z,7.25
2019-02-19T18:53:21.693Z,6.70
2019-02-19T18:56:01.817Z,7.42
2019-02-19T18:58:35.975Z,7.47
2019-02-19T19:01:08.648Z,7.58
2019-02-19T19:03:42.557Z,6.67
2019-02-19T19:06:20.012Z,7.35
2019-02-19T19:08:50.186Z,7.33
2019-02-19T19:11:21.067Z,7.30
2019-02-19T19:13:52.106Z,6.92
2019-02-19T19:16:21.196Z,7.85
2019-02-19T19:19:12.549Z,8.15
2019-02-19T19:21:44.821Z,7.90
2019-02-19T19:24:24.989Z,8.78
2019-02-19T19:27:02.535Z,8.03
2019-02-19T19:29:32.481Z,8.73
2019-02-19T19:32:01.444Z,8.55
2019-02-19T19:34:30.403Z,8.85
2019-02-19T19:37:01.050Z,7.90
2019-02-19T19:39:30.131Z,9.45
2019-02-19T19:41:59.146Z,8.63
2019-02-19T19:44:29.277Z,7.83
2019-02-19T19:46:58.377Z,9.28
2019-02-19T19:49:29.266Z,8.15
2019-02-19T19:52:11.094Z,9.58
2019-02-19T19:54:40.194Z,7.70
2019-02-19T19:57:09.422Z,8.65
2019-02-19T19:59:40.313Z,8.58
2019-02-19T20:02:12.383Z,9.30
2019-02-19T20:04:41.208Z,8.73
2019-02-19T20:07:10.089Z,8.83
2019-02-19T20:09:38.961Z,8.58
2019-02-19T20:12:07.902Z,8.65
2019-02-19T20:14:38.700Z,8.78
2019-02-19T20:17:07.694Z,10.20
2019-02-19T20:19:36.555Z,10.08
2019-02-19T20:22:06.560Z,10.25
2019-02-19T20:24:35.496Z,9.83
2019-02-19T20:27:05.818Z,11.05
2019-02-19T20:29:36.725Z,9.55
2019-02-19T20:32:08.078Z,9.68
2019-02-19T20:34:37.089Z,9.08
2019-02-19T20:37:06.165Z,9.33
2019-02-19T20:39:35.177Z,9.03
2019-02-19T20:42:04.130Z,10.15
2019-02-19T20:44:33.069Z,9.35
2019-02-19T20:47:02.157Z,9.43
2019-02-19T20:49:31.054Z,9.40
2019-02-19T20:52:00.184Z,9.35
2019-02-19T20:54:31.302Z,7.83
2019-02-19T20:57:03.210Z,8.80
2019-02-19T20:59:32.158Z,8.35
2019-02-19T21:02:01.096Z,8.40
2019-02-19T21:04:31.501Z,7.90
2019-02-19T21:07:00.742Z,7.87
2019-02-19T21:09:29.774Z,7.42
2019-02-19T21:11:59.985Z,7.30
2019-02-19T21:14:30.856Z,7.83
2019-02-19T21:17:00.805Z,7.90
2019-02-19T21:19:29.750Z,7.10
2019-02-19T21:21:59.635Z,7.65
2019-02-19T21:24:36.658Z,8.33
2019-02-19T21:27:05.627Z,8.08
2019-02-19T21:29:34.565Z,8.55
2019-02-19T21:32:03.479Z,11.30
2019-02-19T21:34:32.386Z,8.93
2019-02-19T21:37:03.333Z,7.58
2019-02-19T21:39:33.410Z,6.80
2019-02-19T21:42:05.561Z,6.60
2019-02-19T21:44:34.426Z,6.12
2019-02-19T21:47:05.173Z,5.95
2019-02-19T21:49:34.077Z,5.78
2019-02-19T21:52:02.967Z,6.87
2019-02-19T21:54:31.912Z,7.03
2019-02-19T21:57:01.874Z,5.97
2019-02-19T21:59:30.886Z,6.42
2019-02-19T22:01:59.800Z,6.00
2019-02-19T22:04:32.092Z,6.75
2019-02-19T22:07:02.554Z,6.35
2019-02-19T22:09:31.581Z,6.10
2019-02-19T22:12:00.571Z,6.78
2019-02-19T22:14:29.505Z,6.80
2019-02-19T22:16:58.481Z,6.72
2019-02-19T22:19:27.421Z,6.17
2019-02-19T22:22:05.911Z,6.42
2019-02-19T22:24:35.568Z,5.87
2019-02-19T22:27:06.251Z,5.97
2019-02-19T22:29:35.222Z,5.35
2019-02-19T22:32:04.678Z,5.53
2019-02-19T22:34:37.983Z,5.53
2019-02-19T22:37:06.966Z,5.90
2019-02-19T22:39:36.007Z,4.95
2019-02-19T22:42:04.985Z,5.10
2019-02-19T22:44:33.845Z,5.33
2019-02-19T22:47:02.715Z,5.45
2019-02-19T22:49:31.593Z,5.15
2019-02-19T22:52:00.505Z,4.78
2019-02-19T22:54:53.303Z,5.33
2019-02-19T22:57:22.141Z,5.10
2019-02-19T22:59:51.015Z,5.70
2019-02-19T23:02:25.228Z,5.70
2019-02-19T23:04:54.329Z,5.33
2019-02-19T23:07:23.270Z,4.85
2019-02-19T23:09:52.259Z,5.40
2019-02-19T23:12:21.204Z,5.28
2019-02-19T23:14:50.081Z,5.10
2019-02-19T23:17:19.031Z,5.10
2019-02-19T23:19:47.877Z,5.72
2019-02-19T23:22:21.726Z,4.80
2019-02-19T23:24:47.435Z,5.10
2019-02-19T23:27:16.293Z,4.72
2019-02-19T23:29:45.197Z,4.80
2019-02-19T23:32:17.186Z,4.80
2019-02-19T23:34:47.665Z,4.80
2019-02-19T23:37:22.002Z,5.50
2019-02-19T23:39:50.877Z,5.65
2019-02-19T23:42:19.770Z,4.75
2019-02-19T23:44:48.629Z,5.15
2019-02-19T23:47:17.471Z,5.50
2019-02-19T23:49:46.327Z,4.75
2019-02-19T23:52:15.180Z,5.40
2019-02-19T23:54:44.243Z,5.40
2019-02-19T23:57:13.101Z,5.25
2019-02-19T23:59:41.981Z,5.12
